Time;durP1;ratioP1;P1;durP2;ratioP2;P2;SDS_P1;SDS_P2;PMS_P1;PMS_P2;Temp;Humidity;BMP_temperature;BMP_pressure;BME280_temperature;BME280_humidity;BME280_pressure;Samples;Min_cycle;Max_cycle;Signal;HPM_P1;HPM_P2
2020/12/20 00:00:08;;;;;;;9.32;4.93;;;;;;;;;;5051923;28;20009;-75
2020/12/20 00:02:34;;;;;;;10.55;4.53;;;;;;;;;;5050837;28;20025;-74
2020/12/20 00:05:00;;;;;;;7.40;3.83;;;;;;;;;;5051085;28;20040;-75
2020/12/20 00:07:26;;;;;;;10.45;4.72;;;;;;;;;;5052168;28;20075;-74
2020/12/20 00:09:52;;;;;;;11.80;5.07;;;;;;;;;;5051008;28;20116;-74
2020/12/20 00:12:18;;;;;;;9.48;4.32;;;;;;;;;;5051755;28;20056;-74
2020/12/20 00:14:45;;;;;;;11.75;5.18;;;;;;;;;;5050989;28;20095;-75
2020/12/20 00:17:12;;;;;;;10.88;5.95;;;;;;;;;;5052221;28;20048;-75
2020/12/20 00:19:38;;;;;;;13.25;5.50;;;;;;;;;;5051971;28;20013;-74
2020/12/20 00:22:04;;;;;;;11.63;4.95;;;;;;;;;;5052129;28;20017;-74
2020/12/20 00:24:30;;;;;;;11.63;5.53;;;;;;;;;;5051781;28;20027;-76
2020/12/20 00:27:00;;;;;;;9.18;4.00;;;;;;;;;;5050857;28;20104;-75
2020/12/20 00:29:29;;;;;;;8.30;4.75;;;;;;;;;;5052101;28;20045;-75
2020/12/20 00:31:56;;;;;;;9.68;5.15;;;;;;;;;;5050715;28;20570;-75
2020/12/20 00:34:22;;;;;;;8.75;4.82;;;;;;;;;;5051928;28;20029;-75
2020/12/20 00:36:48;;;;;;;8.55;4.43;;;;;;;;;;5052150;28;20092;-75
2020/12/20 00:39:15;;;;;;;10.15;5.50;;;;;;;;;;5052031;28;20017;-75
2020/12/20 00:41:42;;;;;;;12.80;4.20;;;;;;;;;;5051647;28;20021;-75
2020/12/20 00:44:08;;;;;;;11.38;4.43;;;;;;;;;;5050660;28;20411;-75
2020/12/20 00:46:35;;;;;;;13.20;4.82;;;;;;;;;;5051730;28;20025;-75
2020/12/20 00:49:02;;;;;;;12.68;5.70;;;;;;;;;;5051690;28;20072;-75
2020/12/20 00:51:28;;;;;;;8.40;3.60;;;;;;;;;;5051359;28;20408;-75
2020/12/20 00:53:54;;;;;;;10.35;5.55;;;;;;;;;;5050586;28;20021;-75
2020/12/20 00:56:20;;;;;;;11.50;5.18;;;;;;;;;;5050336;28;20025;-75
2020/12/20 00:58:46;;;;;;;11.10;4.90;;;;;;;;;;5050632;28;20039;-75
2020/12/20 01:01:12;;;;;;;9.80;4.47;;;;;;;;;;5051846;28;20017;-75
2020/12/20 01:03:38;;;;;;;8.30;3.75;;;;;;;;;;5050311;28;20387;-75
2020/12/20 01:06:04;;;;;;;9.80;4.43;;;;;;;;;;5050578;28;20032;-75
2020/12/20 01:08:30;;;;;;;7.90;4.00;;;;;;;;;;5051584;28;20099;-75
2020/12/20 01:10:56;;;;;;;8.88;4.72;;;;;;;;;;5051756;28;20017;-75
2020/12/20 01:13:22;;;;;;;11.60;4.10;;;;;;;;;;5053843;28;20036;-75
2020/12/20 01:15:49;;;;;;;10.98;5.25;;;;;;;;;;5055494;28;20047;-75
2020/12/20 01:18:15;;;;;;;11.45;4.63;;;;;;;;;;5055439;28;20052;-75
2020/12/20 01:20:41;;;;;;;10.25;5.15;;;;;;;;;;5054991;28;20009;-75
2020/12/20 01:23:07;;;;;;;9.55;4.50;;;;;;;;;;5055236;28;20025;-75
2020/12/20 01:25:33;;;;;;;9.15;5.10;;;;;;;;;;5055213;28;20028;-75
2020/12/20 01:27:59;;;;;;;6.85;3.13;;;;;;;;;;5055328;28;20017;-75
2020/12/20 01:30:25;;;;;;;9.40;3.95;;;;;;;;;;5053500;28;20052;-75
2020/12/20 01:32:51;;;;;;;8.27;3.35;;;;;;;;;;5055156;28;20017;-75
2020/12/20 01:35:17;;;;;;;11.70;4.88;;;;;;;;;;5055283;28;20028;-75
2020/12/20 01:37:43;;;;;;;10.30;4.45;;;;;;;;;;5054942;28;20020;-75
2020/12/20 01:40:09;;;;;;;6.63;3.50;;;;;;;;;;5055021;28;20032;-74
2020/12/20 01:42:35;;;;;;;11.85;4.72;;;;;;;;;;5053451;28;20016;-75
2020/12/20 01:45:01;;;;;;;10.35;4.35;;;;;;;;;;5053600;28;20373;-75
2020/12/20 01:47:31;;;;;;;12.80;4.82;;;;;;;;;;5053440;28;20025;-75
2020/12/20 01:49:58;;;;;;;9.20;3.95;;;;;;;;;;5053687;28;20052;-75
2020/12/20 01:52:24;;;;;;;12.30;4.50;;;;;;;;;;5054615;28;20017;-75
2020/12/20 01:54:53;;;;;;;6.53;3.28;;;;;;;;;;5054782;28;20021;-75
2020/12/20 01:57:19;;;;;;;7.65;3.33;;;;;;;;;;5054751;28;20492;-75
2020/12/20 01:59:46;;;;;;;9.43;4.10;;;;;;;;;;5054482;28;20381;-75
2020/12/20 02:02:13;;;;;;;11.45;3.35;;;;;;;;;;5054612;28;20013;-75
2020/12/20 02:04:39;;;;;;;9.68;4.47;;;;;;;;;;5054378;28;20369;-75
2020/12/20 02:07:05;;;;;;;11.35;2.92;;;;;;;;;;5053347;28;20094;-75
2020/12/20 02:09:31;;;;;;;6.25;2.80;;;;;;;;;;5054296;28;20017;-75
2020/12/20 02:12:07;;;;;;;9.35;4.03;;;;;;;;;;5054150;28;20032;-75
2020/12/20 02:14:33;;;;;;;9.43;3.80;;;;;;;;;;5054093;28;20021;-75
2020/12/20 02:17:00;;;;;;;8.68;3.22;;;;;;;;;;5054167;28;20457;-75
2020/12/20 02:19:26;;;;;;;7.63;3.92;;;;;;;;;;5052821;28;20049;-74
2020/12/20 02:21:53;;;;;;;6.57;3.53;;;;;;;;;;5052762;28;20402;-74
2020/12/20 02:24:19;;;;;;;11.82;4.10;;;;;;;;;;5052507;28;20484;-74
2020/12/20 02:26:45;;;;;;;12.73;3.30;;;;;;;;;;5052716;28;20029;-74
2020/12/20 02:29:11;;;;;;;9.68;3.70;;;;;;;;;;5053999;28;20041;-74
2020/12/20 02:31:37;;;;;;;12.00;4.22;;;;;;;;;;5052507;28;20039;-74
2020/12/20 02:34:04;;;;;;;11.48;3.88;;;;;;;;;;5052885;28;20024;-74
2020/12/20 02:36:30;;;;;;;10.10;4.18;;;;;;;;;;5053702;28;20075;-74
2020/12/20 02:38:56;;;;;;;9.60;4.63;;;;;;;;;;5054255;28;20021;-75
2020/12/20 02:41:22;;;;;;;10.52;4.10;;;;;;;;;;5052589;28;20479;-74
2020/12/20 02:43:49;;;;;;;8.05;3.55;;;;;;;;;;5053725;28;20025;-74
2020/12/20 02:46:18;;;;;;;9.18;3.88;;;;;;;;;;5053891;28;20457;-74
2020/12/20 02:48:45;;;;;;;7.07;3.33;;;;;;;;;;5052283;28;20025;-74
2020/12/20 02:51:12;;;;;;;13.43;5.07;;;;;;;;;;5052349;28;20027;-74
2020/12/20 02:53:38;;;;;;;8.73;3.63;;;;;;;;;;5052159;28;20028;-74
2020/12/20 02:56:04;;;;;;;10.77;4.32;;;;;;;;;;5053888;28;20021;-74
2020/12/20 02:58:30;;;;;;;8.45;3.78;;;;;;;;;;5053315;28;20350;-74
2020/12/20 03:00:56;;;;;;;8.20;3.88;;;;;;;;;;5053596;28;20021;-74
2020/12/20 03:03:22;;;;;;;12.77;4.50;;;;;;;;;;5052146;28;20027;-74
2020/12/20 03:05:48;;;;;;;7.85;4.25;;;;;;;;;;5053361;28;20020;-74
2020/12/20 03:08:14;;;;;;;11.45;4.20;;;;;;;;;;5052048;28;20040;-74
2020/12/20 03:10:40;;;;;;;11.05;4.35;;;;;;;;;;5053117;28;20365;-74
2020/12/20 03:13:06;;;;;;;10.98;4.30;;;;;;;;;;5053351;28;20461;-74
2020/12/20 03:15:34;;;;;;;7.93;4.00;;;;;;;;;;5052993;28;20025;-74
2020/12/20 03:18:00;;;;;;;15.68;4.57;;;;;;;;;;5053241;28;20020;-74
2020/12/20 03:20:26;;;;;;;9.38;5.13;;;;;;;;;;5053011;28;20085;-74
2020/12/20 03:22:52;;;;;;;12.02;4.40;;;;;;;;;;5051793;28;20021;-74
2020/12/20 03:25:18;;;;;;;10.88;4.45;;;;;;;;;;5052965;28;20031;-74
2020/12/20 03:27:44;;;;;;;11.45;4.03;;;;;;;;;;5052752;28;20021;-74
2020/12/20 03:30:10;;;;;;;11.20;3.40;;;;;;;;;;5051510;28;20125;-74
2020/12/20 03:32:36;;;;;;;10.18;4.57;;;;;;;;;;5052657;28;20453;-74
2020/12/20 03:35:03;;;;;;;12.68;3.75;;;;;;;;;;5050876;28;20029;-74
2020/12/20 03:37:29;;;;;;;9.48;3.33;;;;;;;;;;5051387;28;20021;-74
2020/12/20 03:39:55;;;;;;;8.20;3.45;;;;;;;;;;5052770;28;20025;-74
2020/12/20 03:42:21;;;;;;;9.90;4.45;;;;;;;;;;5051412;28;20031;-74
2020/12/20 03:44:47;;;;;;;11.35;3.83;;;;;;;;;;5052134;28;20063;-74
2020/12/20 03:47:13;;;;;;;10.48;3.33;;;;;;;;;;5051094;28;20017;-74
2020/12/20 03:49:39;;;;;;;9.05;3.63;;;;;;;;;;5051121;28;20120;-74
2020/12/20 03:52:05;;;;;;;9.05;4.00;;;;;;;;;;5051251;28;20013;-74
2020/12/20 03:54:31;;;;;;;6.72;2.90;;;;;;;;;;5052376;28;20031;-74
2020/12/20 03:56:57;;;;;;;9.45;3.85;;;;;;;;;;5051256;28;20107;-74
2020/12/20 03:59:23;;;;;;;9.45;3.60;;;;;;;;;;5052528;28;20043;-74
2020/12/20 04:01:49;;;;;;;14.93;4.22;;;;;;;;;;5052554;28;20457;-74
2020/12/20 04:04:16;;;;;;;8.27;3.45;;;;;;;;;;5052413;28;20071;-74
2020/12/20 04:06:42;;;;;;;9.13;3.60;;;;;;;;;;5052210;28;20108;-74
2020/12/20 04:09:08;;;;;;;12.90;3.92;;;;;;;;;;5052187;28;20032;-74
2020/12/20 04:11:34;;;;;;;10.70;3.75;;;;;;;;;;5052379;28;20021;-74
2020/12/20 04:14:00;;;;;;;12.32;3.90;;;;;;;;;;5051044;28;20369;-74
2020/12/20 04:16:26;;;;;;;10.40;4.38;;;;;;;;;;5050925;28;20063;-74
2020/12/20 04:18:52;;;;;;;9.98;3.40;;;;;;;;;;5052103;28;20009;-74
2020/12/20 04:21:18;;;;;;;10.57;4.20;;;;;;;;;;5050987;28;20040;-74
2020/12/20 04:23:44;;;;;;;6.60;2.75;;;;;;;;;;5050627;28;20341;-74
2020/12/20 04:26:10;;;;;;;10.10;4.03;;;;;;;;;;5052099;28;20025;-74
2020/12/20 04:28:36;;;;;;;11.45;3.10;;;;;;;;;;5050630;28;20013;-74
2020/12/20 04:31:02;;;;;;;7.18;4.13;;;;;;;;;;5050590;28;20041;-74
2020/12/20 04:33:28;;;;;;;7.18;3.22;;;;;;;;;;5050914;28;20025;-74
2020/12/20 04:35:54;;;;;;;12.15;4.15;;;;;;;;;;5050615;28;20112;-74
2020/12/20 04:38:20;;;;;;;7.25;2.88;;;;;;;;;;5050796;28;20053;-74
2020/12/20 04:40:46;;;;;;;11.60;4.22;;;;;;;;;;5050584;28;20062;-74
2020/12/20 04:43:12;;;;;;;10.73;3.40;;;;;;;;;;5050681;28;20509;-74
2020/12/20 04:45:39;;;;;;;10.65;4.68;;;;;;;;;;5052760;28;20021;-74
2020/12/20 04:48:05;;;;;;;10.55;3.38;;;;;;;;;;5056121;28;20017;-74
2020/12/20 04:50:32;;;;;;;7.18;2.83;;;;;;;;;;5054662;28;20021;-74
2020/12/20 04:52:59;;;;;;;7.38;3.00;;;;;;;;;;5055751;28;20454;-74
2020/12/20 04:55:29;;;;;;;9.05;3.90;;;;;;;;;;5055953;28;20020;-74
2020/12/20 04:57:55;;;;;;;13.03;4.10;;;;;;;;;;5054356;28;20058;-74
2020/12/20 05:00:22;;;;;;;8.93;4.18;;;;;;;;;;5054502;28;20517;-73
2020/12/20 05:02:48;;;;;;;13.10;3.75;;;;;;;;;;5055287;28;20021;-74
2020/12/20 05:05:14;;;;;;;15.88;4.55;;;;;;;;;;5055752;28;20036;-74
2020/12/20 05:07:41;;;;;;;9.50;3.28;;;;;;;;;;5055538;28;20017;-74
2020/12/20 05:10:07;;;;;;;6.30;2.58;;;;;;;;;;5055737;28;20021;-74
2020/12/20 05:12:35;;;;;;;11.25;4.10;;;;;;;;;;5054077;28;20028;-74
2020/12/20 05:15:16;;;;;;;10.43;3.90;;;;;;;;;;5054242;28;20040;-74
2020/12/20 05:17:42;;;;;;;9.20;3.55;;;;;;;;;;5055391;28;20055;-74
2020/12/20 05:20:08;;;;;;;8.02;2.92;;;;;;;;;;5055798;28;20221;-74
2020/12/20 05:22:35;;;;;;;10.13;3.25;;;;;;;;;;5053931;28;20074;-74
2020/12/20 05:25:15;;;;;;;13.75;3.65;;;;;;;;;;5055205;28;20020;-74
2020/12/20 05:27:41;;;;;;;10.43;3.63;;;;;;;;;;5053840;28;20366;-74
2020/12/20 05:30:17;;;;;;;10.05;3.67;;;;;;;;;;5054910;28;20045;-74
2020/12/20 05:32:44;;;;;;;10.88;3.30;;;;;;;;;;5053684;28;20049;-74
2020/12/20 05:35:14;;;;;;;9.00;3.13;;;;;;;;;;5053911;28;20028;-74
2020/12/20 05:37:41;;;;;;;11.82;3.75;;;;;;;;;;5053621;28;20048;-74
2020/12/20 05:40:08;;;;;;;11.15;3.45;;;;;;;;;;5053474;28;20017;-74
2020/12/20 05:42:34;;;;;;;7.50;2.83;;;;;;;;;;5053709;28;20017;-74
2020/12/20 05:45:06;;;;;;;14.38;4.00;;;;;;;;;;5055013;28;20017;-74
2020/12/20 05:47:32;;;;;;;13.00;3.20;;;;;;;;;;5054913;28;20457;-74
2020/12/20 05:49:58;;;;;;;14.35;4.55;;;;;;;;;;5054703;28;20017;-74
2020/12/20 05:52:24;;;;;;;14.32;3.72;;;;;;;;;;5053453;28;20476;-74
2020/12/20 05:54:50;;;;;;;10.45;3.60;;;;;;;;;;5054573;28;20029;-74
2020/12/20 05:57:18;;;;;;;12.38;3.40;;;;;;;;;;5053845;28;20017;-74
2020/12/20 05:59:44;;;;;;;8.98;3.42;;;;;;;;;;5053150;28;20116;-75
2020/12/20 06:02:12;;;;;;;8.07;2.90;;;;;;;;;;5054648;28;20013;-74
2020/12/20 06:04:38;;;;;;;12.95;4.28;;;;;;;;;;5052959;28;20025;-75
2020/12/20 06:07:07;;;;;;;12.57;3.40;;;;;;;;;;5053326;28;20490;-75
2020/12/20 06:09:39;;;;;;;10.25;3.47;;;;;;;;;;5054941;28;20365;-75
2020/12/20 06:12:09;;;;;;;13.93;4.10;;;;;;;;;;5054320;28;20120;-75
2020/12/20 06:14:38;;;;;;;12.60;4.75;;;;;;;;;;5053149;28;20024;-75
2020/12/20 06:17:13;;;;;;;13.82;4.32;;;;;;;;;;5054384;28;20025;-74
2020/12/20 06:19:52;;;;;;;16.67;3.40;;;;;;;;;;5054071;28;20039;-74
2020/12/20 06:22:19;;;;;;;13.18;4.15;;;;;;;;;;5054319;28;20029;-75
2020/12/20 06:24:50;;;;;;;9.45;3.03;;;;;;;;;;5052553;28;20017;-75
2020/12/20 06:27:17;;;;;;;11.10;4.20;;;;;;;;;;5052888;28;20025;-74
2020/12/20 06:29:44;;;;;;;11.05;3.13;;;;;;;;;;5052501;28;20048;-75
2020/12/20 06:32:13;;;;;;;12.30;4.13;;;;;;;;;;5052774;28;20508;-75
2020/12/20 06:34:40;;;;;;;12.20;4.35;;;;;;;;;;5054055;28;20465;-75
2020/12/20 06:37:06;;;;;;;8.52;2.60;;;;;;;;;;5053748;28;20392;-75
2020/12/20 06:39:39;;;;;;;12.30;3.85;;;;;;;;;;5054275;28;20441;-74
2020/12/20 06:42:05;;;;;;;10.43;4.00;;;;;;;;;;5053970;28;20028;-75
2020/12/20 06:44:31;;;;;;;9.15;3.42;;;;;;;;;;5053810;28;20087;-75
2020/12/20 06:46:57;;;;;;;12.05;3.22;;;;;;;;;;5053625;28;20048;-74
2020/12/20 06:49:33;;;;;;;9.65;2.85;;;;;;;;;;5053531;28;20017;-74
2020/12/20 06:52:17;;;;;;;10.77;3.47;;;;;;;;;;5052162;28;20025;-74
2020/12/20 06:55:01;;;;;;;11.32;3.55;;;;;;;;;;5052113;28;20501;-74
2020/12/20 06:57:28;;;;;;;11.00;3.42;;;;;;;;;;5053314;28;20396;-74
2020/12/20 06:59:54;;;;;;;9.30;3.17;;;;;;;;;;5053416;28;20051;-74
2020/12/20 07:02:42;;;;;;;9.25;3.22;;;;;;;;;;5053573;28;20025;-73
2020/12/20 07:05:27;;;;;;;11.30;3.50;;;;;;;;;;5052233;28;20021;-74
2020/12/20 07:08:09;;;;;;;13.95;3.28;;;;;;;;;;5051834;28;20025;-74
2020/12/20 07:10:42;;;;;;;6.68;2.60;;;;;;;;;;5052130;28;20013;-73
2020/12/20 07:13:09;;;;;;;10.32;3.10;;;;;;;;;;5052053;28;20021;-74
2020/12/20 07:15:44;;;;;;;14.30;3.42;;;;;;;;;;5053265;28;20032;-74
2020/12/20 07:18:10;;;;;;;13.80;3.10;;;;;;;;;;5051950;28;20103;-74
2020/12/20 07:20:36;;;;;;;9.40;2.75;;;;;;;;;;5051928;28;20021;-73
2020/12/20 07:23:03;;;;;;;12.38;4.15;;;;;;;;;;5051692;28;20449;-74
2020/12/20 07:25:29;;;;;;;9.48;3.70;;;;;;;;;;5053040;28;20107;-74
2020/12/20 07:27:55;;;;;;;7.03;2.85;;;;;;;;;;5052766;28;20095;-74
2020/12/20 07:30:21;;;;;;;10.95;2.80;;;;;;;;;;5053080;28;20534;-74
2020/12/20 07:32:47;;;;;;;11.25;3.17;;;;;;;;;;5051408;28;20075;-74
2020/12/20 07:35:16;;;;;;;13.15;3.97;;;;;;;;;;5053033;28;20021;-74
2020/12/20 07:37:52;;;;;;;9.45;3.72;;;;;;;;;;5051341;28;20053;-74
2020/12/20 07:40:19;;;;;;;10.43;3.50;;;;;;;;;;5051488;28;20074;-75
2020/12/20 07:42:45;;;;;;;16.75;4.22;;;;;;;;;;5051454;28;20075;-75
2020/12/20 07:45:14;;;;;;;13.93;3.70;;;;;;;;;;5051388;28;20045;-75
2020/12/20 07:47:49;;;;;;;10.80;3.22;;;;;;;;;;5052729;28;20024;-75
2020/12/20 07:50:22;;;;;;;10.60;2.92;;;;;;;;;;5051450;28;20457;-75
2020/12/20 07:52:51;;;;;;;14.45;3.40;;;;;;;;;;5051116;28;20029;-75
2020/12/20 07:55:17;;;;;;;9.68;3.08;;;;;;;;;;5051269;28;20045;-75
2020/12/20 07:57:47;;;;;;;12.60;4.20;;;;;;;;;;5051052;28;20438;-75
2020/12/20 08:00:14;;;;;;;10.85;3.80;;;;;;;;;;5052861;28;20021;-75
2020/12/20 08:02:40;;;;;;;9.38;3.58;;;;;;;;;;5052493;28;20074;-75
2020/12/20 08:05:10;;;;;;;11.32;4.78;;;;;;;;;;5052328;28;20448;-75
2020/12/20 08:07:37;;;;;;;12.27;3.80;;;;;;;;;;5050841;28;20025;-75
2020/12/20 08:10:04;;;;;;;10.25;2.58;;;;;;;;;;5050878;28;20373;-75
2020/12/20 08:12:30;;;;;;;8.93;3.30;;;;;;;;;;5052401;28;20028;-75
2020/12/20 08:15:02;;;;;;;12.35;4.45;;;;;;;;;;5051696;28;20033;-75
2020/12/20 08:17:28;;;;;;;14.10;4.40;;;;;;;;;;5050964;28;20450;-74
2020/12/20 08:19:55;;;;;;;14.10;4.40;;;;;;;;;;5051795;28;20020;-74
2020/12/20 08:22:22;;;;;;;12.02;3.53;;;;;;;;;;5054556;28;20033;-74
2020/12/20 08:24:48;;;;;;;8.98;3.25;;;;;;;;;;5058577;28;20032;-75
2020/12/20 08:27:16;;;;;;;10.32;3.80;;;;;;;;;;5061314;28;20399;-75
2020/12/20 08:29:43;;;;;;;10.55;3.03;;;;;;;;;;5060609;28;20117;-75
2020/12/20 08:32:13;;;;;;;10.68;3.67;;;;;;;;;;5060268;28;20016;-75
2020/12/20 08:34:39;;;;;;;17.00;5.15;;;;;;;;;;5060874;28;20526;-73
2020/12/20 08:37:16;;;;;;;16.70;4.53;;;;;;;;;;5060329;28;20040;-73
2020/12/20 08:39:43;;;;;;;12.55;3.17;;;;;;;;;;5061814;28;20530;-73
2020/12/20 08:42:10;;;;;;;13.07;3.70;;;;;;;;;;5063206;28;20457;-74
2020/12/20 08:44:37;;;;;;;15.18;3.50;;;;;;;;;;5059400;28;20036;-73
2020/12/20 08:47:10;;;;;;;12.05;3.53;;;;;;;;;;5065570;28;20031;-73
2020/12/20 08:49:36;;;;;;;11.82;3.28;;;;;;;;;;5071889;28;20106;-74
2020/12/20 08:52:06;;;;;;;12.65;3.40;;;;;;;;;;5071905;28;20073;-74
2020/12/20 08:54:32;;;;;;;13.45;3.42;;;;;;;;;;5071875;28;20024;-73
2020/12/20 08:57:10;;;;;;;18.83;4.05;;;;;;;;;;5070254;28;20020;-74
2020/12/20 08:59:46;;;;;;;15.15;3.78;;;;;;;;;;5070561;28;20013;-74
2020/12/20 09:02:21;;;;;;;12.40;3.55;;;;;;;;;;5072082;28;20356;-73
2020/12/20 09:04:57;;;;;;;11.75;3.17;;;;;;;;;;5071514;28;20017;-73
2020/12/20 09:07:40;;;;;;;14.48;3.92;;;;;;;;;;5071561;28;20025;-74
2020/12/20 09:10:10;;;;;;;12.07;4.50;;;;;;;;;;5070218;28;20024;-74
2020/12/20 09:12:36;;;;;;;;;;;;;;;;;;5070930;28;20464;-75
2020/12/20 09:15:14;;;;;;;12.43;4.18;;;;;;;;;;5070061;28;19900;-74
2020/12/20 09:18:00;;;;;;;12.07;3.78;;;;;;;;;;5070280;28;20056;-75
2020/12/20 09:20:27;;;;;;;11.82;3.20;;;;;;;;;;5071400;28;20026;-74
2020/12/20 09:22:54;;;;;;;11.05;2.88;;;;;;;;;;5070015;28;20013;-75
2020/12/20 09:25:33;;;;;;;17.67;3.97;;;;;;;;;;5061958;28;20045;-75
2020/12/20 09:27:59;;;;;;;13.98;3.88;;;;;;;;;;5051401;28;20021;-77
2020/12/20 09:30:41;;;;;;;12.60;4.03;;;;;;;;;;5050057;28;20041;-76
2020/12/20 09:33:17;;;;;;;13.90;4.05;;;;;;;;;;5052966;28;20025;-75
2020/12/20 09:36:00;;;;;;;13.70;4.18;;;;;;;;;;5053995;28;20017;-75
2020/12/20 09:38:27;;;;;;;23.73;4.30;;;;;;;;;;5053785;28;20103;-76
2020/12/20 09:41:00;;;;;;;16.40;4.63;;;;;;;;;;5054908;28;20021;-77
2020/12/20 09:43:26;;;;;;;12.48;4.63;;;;;;;;;;5053386;28;20029;-76
2020/12/20 09:45:52;;;;;;;13.65;3.72;;;;;;;;;;5054762;28;20023;-74
2020/12/20 09:48:19;;;;;;;16.73;3.42;;;;;;;;;;5054926;28;20025;-74
2020/12/20 09:50:45;;;;;;;19.20;4.07;;;;;;;;;;5054905;28;20013;-76
2020/12/20 09:53:11;;;;;;;14.98;4.70;;;;;;;;;;5053371;28;20028;-73
2020/12/20 09:55:41;;;;;;;18.60;4.03;;;;;;;;;;5054542;28;20412;-76
2020/12/20 09:58:08;;;;;;;14.77;3.95;;;;;;;;;;5054564;28;20019;-77
2020/12/20 10:00:34;;;;;;;13.52;3.28;;;;;;;;;;5053297;28;20382;-77
2020/12/20 10:03:00;;;;;;;13.50;3.97;;;;;;;;;;5054406;28;20009;-77
2020/12/20 10:05:26;;;;;;;22.27;3.75;;;;;;;;;;5053322;28;20036;-77
2020/12/20 10:07:52;;;;;;;14.07;3.63;;;;;;;;;;5053022;28;20460;-77
2020/12/20 10:10:18;;;;;;;15.60;4.63;;;;;;;;;;5053235;28;20052;-78
2020/12/20 10:12:44;;;;;;;12.20;3.90;;;;;;;;;;5053179;28;20013;-77
2020/12/20 10:15:10;;;;;;;17.25;4.43;;;;;;;;;;5052620;28;20378;-77
2020/12/20 10:17:36;;;;;;;17.67;5.28;;;;;;;;;;5053110;28;20025;-77
2020/12/20 10:20:02;;;;;;;15.60;3.90;;;;;;;;;;5052767;28;20013;-77
2020/12/20 10:22:28;;;;;;;15.27;3.75;;;;;;;;;;5052998;28;20113;-78
2020/12/20 10:24:55;;;;;;;12.05;3.08;;;;;;;;;;5052613;28;20107;-77
2020/12/20 10:27:21;;;;;;;16.65;4.60;;;;;;;;;;5052805;28;20028;-78
2020/12/20 10:29:47;;;;;;;17.23;3.85;;;;;;;;;;5052566;28;20064;-76
2020/12/20 10:32:14;;;;;;;17.67;4.38;;;;;;;;;;5052504;28;20342;-77
2020/12/20 10:34:40;;;;;;;13.05;3.88;;;;;;;;;;5052640;28;20032;-79
2020/12/20 10:37:06;;;;;;;16.73;3.92;;;;;;;;;;5053534;28;20402;-75
2020/12/20 10:39:32;;;;;;;20.13;4.35;;;;;;;;;;5053891;28;20460;-76
2020/12/20 10:41:58;;;;;;;17.88;4.50;;;;;;;;;;5052333;28;20013;-78
2020/12/20 10:44:24;;;;;;;13.65;3.92;;;;;;;;;;5051854;28;20480;-75
2020/12/20 10:46:51;;;;;;;17.00;4.30;;;;;;;;;;5052458;28;20078;-75
2020/12/20 10:49:17;;;;;;;19.40;4.05;;;;;;;;;;5052395;28;20017;-75
2020/12/20 10:51:44;;;;;;;15.27;4.97;;;;;;;;;;5052346;28;20434;-78
2020/12/20 10:54:10;;;;;;;17.58;4.85;;;;;;;;;;5052039;28;20025;-77
2020/12/20 10:56:36;;;;;;;27.58;5.10;;;;;;;;;;5052292;28;20036;-81
2020/12/20 10:59:02;;;;;;;20.55;5.72;;;;;;;;;;5051992;28;20017;-76
2020/12/20 11:01:28;;;;;;;24.52;5.07;;;;;;;;;;5063252;28;20361;-79
2020/12/20 11:03:54;;;;;;;15.23;3.30;;;;;;;;;;5072999;28;20190;-79
2020/12/20 11:06:21;;;;;;;12.80;3.72;;;;;;;;;;5074242;28;20081;-82
2020/12/20 11:08:47;;;;;;;23.77;5.07;;;;;;;;;;5079240;28;20016;-75
2020/12/20 11:11:14;;;;;;;18.88;3.53;;;;;;;;;;5081794;28;20020;-74
2020/12/20 11:13:42;;;;;;;20.23;4.05;;;;;;;;;;5077483;28;20028;-80
2020/12/20 11:16:15;;;;;;;20.17;3.92;;;;;;;;;;5087931;28;20016;-78
2020/12/20 11:18:41;;;;;;;14.45;3.63;;;;;;;;;;5077140;28;20024;-75
2020/12/20 11:21:10;;;;;;;22.67;4.07;;;;;;;;;;5081777;28;20017;-75
2020/12/20 11:23:36;;;;;;;19.67;3.97;;;;;;;;;;5084852;28;20044;-76
2020/12/20 11:26:02;;;;;;;16.75;4.15;;;;;;;;;;5061045;28;20053;-75
2020/12/20 11:28:28;;;;;;;19.13;5.32;;;;;;;;;;5087512;28;20055;-83
2020/12/20 11:30:54;;;;;;;16.75;3.40;;;;;;;;;;5078172;28;20867;-74
2020/12/20 11:33:20;;;;;;;15.82;5.10;;;;;;;;;;5091673;28;20051;-75
2020/12/20 11:35:46;;;;;;;18.92;6.47;;;;;;;;;;5093069;28;20031;-77
2020/12/20 11:38:12;;;;;;;16.75;4.28;;;;;;;;;;5091577;28;20452;-76
2020/12/20 11:40:38;;;;;;;16.40;4.82;;;;;;;;;;5092573;28;20035;-77
2020/12/20 11:43:04;;;;;;;21.92;5.00;;;;;;;;;;5091644;28;20038;-78
2020/12/20 11:45:30;;;;;;;16.60;4.63;;;;;;;;;;5091824;28;20032;-78
2020/12/20 11:47:56;;;;;;;22.98;5.63;;;;;;;;;;5091567;28;20045;-78
2020/12/20 11:50:22;;;;;;;19.00;4.80;;;;;;;;;;5091739;28;20066;-76
2020/12/20 11:52:48;;;;;;;20.20;5.38;;;;;;;;;;5091553;28;20469;-75
2020/12/20 11:55:14;;;;;;;22.27;5.80;;;;;;;;;;5091867;28;20103;-77
2020/12/20 11:57:40;;;;;;;22.48;5.85;;;;;;;;;;5091201;28;20111;-77
2020/12/20 12:00:06;;;;;;;18.50;5.15;;;;;;;;;;5091240;28;20107;-77
2020/12/20 12:02:32;;;;;;;19.08;4.78;;;;;;;;;;5091311;28;20125;-77
2020/12/20 12:04:58;;;;;;;10.82;4.00;;;;;;;;;;5082132;28;20020;-76
2020/12/20 12:07:25;;;;;;;19.67;5.57;;;;;;;;;;5071453;28;20025;-76
2020/12/20 12:09:51;;;;;;;21.85;5.78;;;;;;;;;;5083569;28;20353;-76
2020/12/20 12:12:17;;;;;;;20.85;5.38;;;;;;;;;;5074233;28;20457;-76
2020/12/20 12:14:43;;;;;;;15.98;4.50;;;;;;;;;;5087365;28;20028;-76
2020/12/20 12:17:09;;;;;;;18.75;5.35;;;;;;;;;;5077322;28;20103;-77
2020/12/20 12:19:35;;;;;;;20.08;5.03;;;;;;;;;;5080123;28;20582;-77
2020/12/20 12:22:01;;;;;;;22.08;6.00;;;;;;;;;;5084571;28;20070;-77
2020/12/20 12:24:27;;;;;;;20.38;5.93;;;;;;;;;;5064337;28;20358;-77
2020/12/20 12:26:53;;;;;;;24.92;4.90;;;;;;;;;;5061274;28;20024;-77
2020/12/20 12:29:19;;;;;;;24.25;6.18;;;;;;;;;;5056450;28;20041;-77
2020/12/20 12:31:46;;;;;;;20.45;5.18;;;;;;;;;;5064892;28;20070;-77
2020/12/20 12:34:12;;;;;;;24.25;6.00;;;;;;;;;;5070590;28;20456;-77
2020/12/20 12:36:38;;;;;;;18.20;4.35;;;;;;;;;;5070565;28;20051;-77
2020/12/20 12:39:06;;;;;;;18.30;5.05;;;;;;;;;;5070467;28;20013;-77
2020/12/20 12:41:32;;;;;;;19.15;4.90;;;;;;;;;;5070789;28;20023;-77
2020/12/20 12:43:58;;;;;;;18.95;5.68;;;;;;;;;;5071338;28;20021;-77
2020/12/20 12:46:24;;;;;;;19.90;5.93;;;;;;;;;;5070699;28;20460;-78
2020/12/20 12:48:50;;;;;;;25.13;4.50;;;;;;;;;;5070661;28;20107;-78
2020/12/20 12:51:20;;;;;;;14.27;4.18;;;;;;;;;;5070448;28;20025;-76
2020/12/20 12:53:46;;;;;;;24.55;4.53;;;;;;;;;;5071923;28;20107;-77
2020/12/20 12:56:14;;;;;;;21.08;3.97;;;;;;;;;;5070319;28;20066;-76
2020/12/20 12:58:40;;;;;;;15.77;4.07;;;;;;;;;;5070620;28;20086;-76
2020/12/20 13:01:06;;;;;;;20.45;5.57;;;;;;;;;;5070191;28;20441;-77
2020/12/20 13:03:32;;;;;;;18.90;4.90;;;;;;;;;;5070362;28;20027;-77
2020/12/20 13:05:59;;;;;;;16.98;4.28;;;;;;;;;;5070385;28;20021;-77
2020/12/20 13:08:24;;;;;;;24.90;4.47;;;;;;;;;;5074203;28;20070;-77
2020/12/20 13:10:50;;;;;;;15.98;4.07;;;;;;;;;;5074377;28;20024;-76
2020/12/20 13:13:16;;;;;;;15.60;4.25;;;;;;;;;;5074048;28;20506;-77
2020/12/20 13:15:42;;;;;;;19.80;4.20;;;;;;;;;;5074152;28;20025;-78
2020/12/20 13:18:08;;;;;;;18.90;4.25;;;;;;;;;;5073780;28;20056;-76
2020/12/20 13:20:34;;;;;;;21.45;4.03;;;;;;;;;;5075413;28;20487;-77
2020/12/20 13:23:03;;;;;;;10.75;3.40;;;;;;;;;;5073815;28;20021;-77
2020/12/20 13:25:30;;;;;;;14.52;3.17;;;;;;;;;;5064297;28;20068;-76
2020/12/20 13:27:56;;;;;;;17.90;3.67;;;;;;;;;;5054231;28;20048;-77
2020/12/20 13:30:22;;;;;;;18.30;4.20;;;;;;;;;;5053287;28;20378;-77
2020/12/20 13:32:48;;;;;;;19.73;3.63;;;;;;;;;;5053842;28;20068;-76
2020/12/20 13:35:14;;;;;;;16.73;3.55;;;;;;;;;;5053705;28;20043;-77
2020/12/20 13:37:41;;;;;;;20.30;4.38;;;;;;;;;;5053887;28;20021;-76
2020/12/20 13:40:07;;;;;;;15.70;4.03;;;;;;;;;;5054842;28;20464;-77
2020/12/20 13:42:33;;;;;;;18.98;4.22;;;;;;;;;;5054778;28;20376;-76
2020/12/20 13:45:00;;;;;;;22.60;4.40;;;;;;;;;;5053450;28;20103;-76
2020/12/20 13:47:26;;;;;;;17.52;6.20;;;;;;;;;;5055046;28;20044;-76
2020/12/20 13:49:52;;;;;;;17.65;4.78;;;;;;;;;;5053689;28;20468;-76
2020/12/20 13:52:18;;;;;;;18.80;5.30;;;;;;;;;;5053359;28;20043;-76
2020/12/20 13:54:46;;;;;;;11.18;3.45;;;;;;;;;;5053517;28;20449;-77
2020/12/20 13:57:13;;;;;;;20.88;3.90;;;;;;;;;;5053236;28;20021;-77
2020/12/20 13:59:39;;;;;;;17.55;4.50;;;;;;;;;;5054482;28;20086;-77
2020/12/20 14:02:05;;;;;;;17.25;3.97;;;;;;;;;;5052940;28;20423;-77
2020/12/20 14:04:31;;;;;;;10.80;3.40;;;;;;;;;;5054742;28;20100;-77
2020/12/20 14:06:57;;;;;;;17.95;3.80;;;;;;;;;;5053339;28;20039;-77
2020/12/20 14:09:23;;;;;;;13.20;3.03;;;;;;;;;;5053051;28;20468;-77
2020/12/20 14:11:54;;;;;;;22.02;4.40;;;;;;;;;;5053183;28;20024;-77
2020/12/20 14:14:20;;;;;;;16.70;4.38;;;;;;;;;;5053039;28;20029;-77
2020/12/20 14:16:52;;;;;;;15.07;3.58;;;;;;;;;;5052997;28;20032;-77
2020/12/20 14:19:19;;;;;;;17.70;4.03;;;;;;;;;;5052233;28;20021;-77
2020/12/20 14:21:46;;;;;;;15.48;3.67;;;;;;;;;;5053001;28;20017;-77
2020/12/20 14:24:12;;;;;;;14.13;3.83;;;;;;;;;;5052605;28;20116;-77
2020/12/20 14:26:39;;;;;;;29.63;5.65;;;;;;;;;;5052915;28;20021;-77
2020/12/20 14:29:05;;;;;;;12.43;3.58;;;;;;;;;;5052457;28;20013;-77
2020/12/20 14:31:32;;;;;;;19.38;5.03;;;;;;;;;;5052834;28;20107;-77
2020/12/20 14:33:58;;;;;;;18.17;5.22;;;;;;;;;;5052779;28;20044;-77